Available data for KLBE from the past 2 hours
LATROBE/WESTMORL, PA
Metar
KLBE 210145Z 19006KT 10SM SKC 28/25 A2995

01:45 UTC

Wind: 190° 6kt

Visibility: 10 SM

Sky:

Temp: 28 deg C / 82.4 deg F

Dewpoint: 25 deg C / 77 deg F

Pressure: 29.95 inHg

TAF
KLBE 202320Z 2100/2124 26006KT P6SM VCTS SCT040CB FM210300 23005KT P6SM BKN100 FM211500 27007KT P6SM VCTS BKN040CB